sensor_id;sensor_type;location;lat;lon;timestamp;P1;durP1;ratioP1;P2;durP2;ratioP2
59702;SDS011;45570;48.782;8.332;2022-10-18T08:56:12;12.93;;;6.95;;
59702;SDS011;45570;48.782;8.332;2022-10-18T08:59:11;12.20;;;6.93;;
59702;SDS011;45570;48.782;8.332;2022-10-18T09:01:42;21.05;;;6.72;;
59702;SDS011;45570;48.782;8.332;2022-10-18T09:04:33;10.73;;;6.38;;
59702;SDS011;45570;48.782;8.332;2022-10-18T09:07:52;17.00;;;5.93;;
59702;SDS011;45570;48.782;8.332;2022-10-18T09:25:55;11.95;;;4.93;;
59702;SDS011;45570;48.782;8.332;2022-10-18T09:31:06;7.90;;;4.22;;
59702;SDS011;45570;48.782;8.332;2022-10-18T09:33:43;9.10;;;4.47;;
59702;SDS011;45570;48.782;8.332;2022-10-18T09:36:18;10.52;;;4.40;;
59702;SDS011;45570;48.782;8.332;2022-10-18T09:38:50;7.85;;;3.92;;
59702;SDS011;45570;48.782;8.332;2022-10-18T09:41:27;9.55;;;4.53;;
59702;SDS011;45570;48.782;8.332;2022-10-18T09:44:02;7.68;;;4.10;;
59702;SDS011;45570;48.782;8.332;2022-10-18T09:46:41;8.82;;;4.18;;
59702;SDS011;45570;48.782;8.332;2022-10-18T09:49:14;10.77;;;4.40;;
59702;SDS011;45570;48.782;8.332;2022-10-18T09:51:46;10.45;;;3.80;;
59702;SDS011;45570;48.782;8.332;2022-10-18T09:54:19;12.43;;;3.83;;
59702;SDS011;45570;48.782;8.332;2022-10-18T09:56:55;7.13;;;3.63;;
59702;SDS011;45570;48.782;8.332;2022-10-18T09:59:39;9.27;;;3.83;;
59702;SDS011;45570;48.782;8.332;2022-10-18T10:02:11;10.95;;;3.90;;
59702;SDS011;45570;48.782;8.332;2022-10-18T10:04:42;6.38;;;3.47;;
59702;SDS011;45570;48.782;8.332;2022-10-18T10:07:13;13.32;;;4.00;;
59702;SDS011;45570;48.782;8.332;2022-10-18T10:09:44;10.57;;;4.25;;
59702;SDS011;45570;48.782;8.332;2022-10-18T10:12:26;7.13;;;3.65;;
59702;SDS011;45570;48.782;8.332;2022-10-18T10:15:05;11.15;;;3.95;;
59702;SDS011;45570;48.782;8.332;2022-10-18T10:17:36;8.45;;;3.75;;
59702;SDS011;45570;48.782;8.332;2022-10-18T10:20:13;10.52;;;3.53;;
59702;SDS011;45570;48.782;8.332;2022-10-18T10:22:45;8.00;;;3.75;;
59702;SDS011;45570;48.782;8.332;2022-10-18T10:25:19;5.50;;;3.30;;
59702;SDS011;45570;48.782;8.332;2022-10-18T10:27:56;9.18;;;4.22;;
59702;SDS011;45570;48.782;8.332;2022-10-18T10:30:31;14.00;;;4.57;;
59702;SDS011;45570;48.782;8.332;2022-10-18T10:33:01;12.25;;;5.53;;
59702;SDS011;45570;48.782;8.332;2022-10-18T10:35:32;15.77;;;6.60;;
59702;SDS011;45570;48.782;8.332;2022-10-18T10:38:23;15.13;;;4.88;;
59702;SDS011;45570;48.782;8.332;2022-10-18T10:40:52;13.02;;;4.53;;
59702;SDS011;45570;48.782;8.332;2022-10-18T10:43:24;9.32;;;4.38;;
59702;SDS011;45570;48.782;8.332;2022-10-18T10:46:10;13.13;;;4.65;;
59702;SDS011;45570;48.782;8.332;2022-10-18T10:48:44;7.88;;;4.05;;
59702;SDS011;45570;48.782;8.332;2022-10-18T10:51:15;11.23;;;4.50;;
59702;SDS011;45570;48.782;8.332;2022-10-18T10:53:58;5.25;;;3.60;;
59702;SDS011;45570;48.782;8.332;2022-10-18T10:56:29;6.57;;;3.63;;
59702;SDS011;45570;48.782;8.332;2022-10-18T10:59:05;9.15;;;3.78;;
59702;SDS011;45570;48.782;8.332;2022-10-18T11:01:39;7.30;;;3.58;;
59702;SDS011;45570;48.782;8.332;2022-10-18T11:04:22;7.85;;;3.20;;
59702;SDS011;45570;48.782;8.332;2022-10-18T11:06:56;11.57;;;4.10;;
59702;SDS011;45570;48.782;8.332;2022-10-18T11:09:40;8.52;;;3.40;;
59702;SDS011;45570;48.782;8.332;2022-10-18T11:17:58;11.65;;;4.00;;
59702;SDS011;45570;48.782;8.332;2022-10-18T11:20:34;16.30;;;3.97;;
59702;SDS011;45570;48.782;8.332;2022-10-18T11:23:09;6.25;;;2.92;;
59702;SDS011;45570;48.782;8.332;2022-10-18T11:25:42;5.70;;;3.13;;
59702;SDS011;45570;48.782;8.332;2022-10-18T11:28:24;4.25;;;3.20;;
59702;SDS011;45570;48.782;8.332;2022-10-18T11:31:09;4.35;;;2.78;;
59702;SDS011;45570;48.782;8.332;2022-10-18T11:33:50;5.22;;;3.25;;
59702;SDS011;45570;48.782;8.332;2022-10-18T11:36:37;8.10;;;3.55;;
59702;SDS011;45570;48.782;8.332;2022-10-18T11:39:30;5.88;;;3.38;;
59702;SDS011;45570;48.782;8.332;2022-10-18T11:42:08;5.47;;;3.05;;
59702;SDS011;45570;48.782;8.332;2022-10-18T11:44:49;10.95;;;2.95;;
59702;SDS011;45570;48.782;8.332;2022-10-18T11:47:24;9.18;;;3.33;;
59702;SDS011;45570;48.782;8.332;2022-10-18T11:50:03;5.82;;;3.20;;
59702;SDS011;45570;48.782;8.332;2022-10-18T11:52:40;7.57;;;3.60;;
59702;SDS011;45570;48.782;8.332;2022-10-18T11:55:24;7.47;;;3.40;;
59702;SDS011;45570;48.782;8.332;2022-10-18T11:58:01;10.68;;;3.60;;
59702;SDS011;45570;48.782;8.332;2022-10-18T12:00:42;4.05;;;3.00;;
59702;SDS011;45570;48.782;8.332;2022-10-18T12:03:23;5.80;;;2.72;;
59702;SDS011;45570;48.782;8.332;2022-10-18T12:06:05;5.10;;;3.03;;
59702;SDS011;45570;48.782;8.332;2022-10-18T12:08:40;7.63;;;2.80;;
59702;SDS011;45570;48.782;8.332;2022-10-18T12:11:13;16.42;;;3.92;;
59702;SDS011;45570;48.782;8.332;2022-10-18T12:13:46;4.97;;;3.00;;
59702;SDS011;45570;48.782;8.332;2022-10-18T12:16:19;7.65;;;2.60;;
59702;SDS011;45570;48.782;8.332;2022-10-18T12:19:15;4.57;;;2.40;;
59702;SDS011;45570;48.782;8.332;2022-10-18T12:21:53;6.95;;;2.78;;
59702;SDS011;45570;48.782;8.332;2022-10-18T12:24:24;7.53;;;3.00;;
59702;SDS011;45570;48.782;8.332;2022-10-18T12:26:56;3.80;;;2.70;;
59702;SDS011;45570;48.782;8.332;2022-10-18T12:29:28;4.40;;;2.72;;
59702;SDS011;45570;48.782;8.332;2022-10-18T12:32:05;5.95;;;3.30;;
59702;SDS011;45570;48.782;8.332;2022-10-18T12:34:39;8.73;;;3.42;;
59702;SDS011;45570;48.782;8.332;2022-10-18T12:40:14;5.10;;;3.03;;
59702;SDS011;45570;48.782;8.332;2022-10-18T12:42:48;4.63;;;2.97;;
59702;SDS011;45570;48.782;8.332;2022-10-18T12:45:28;3.70;;;2.63;;
59702;SDS011;45570;48.782;8.332;2022-10-18T12:48:00;7.95;;;2.83;;
59702;SDS011;45570;48.782;8.332;2022-10-18T12:50:34;4.38;;;2.90;;
59702;SDS011;45570;48.782;8.332;2022-10-18T12:53:15;6.75;;;2.55;;
59702;SDS011;45570;48.782;8.332;2022-10-18T12:55:47;9.55;;;2.90;;
59702;SDS011;45570;48.782;8.332;2022-10-18T12:58:25;8.32;;;2.85;;
59702;SDS011;45570;48.782;8.332;2022-10-18T13:01:02;8.25;;;3.25;;
59702;SDS011;45570;48.782;8.332;2022-10-18T13:03:41;6.75;;;2.95;;
59702;SDS011;45570;48.782;8.332;2022-10-18T13:06:20;3.65;;;2.33;;
59702;SDS011;45570;48.782;8.332;2022-10-18T13:09:15;6.88;;;2.83;;
59702;SDS011;45570;48.782;8.332;2022-10-18T13:11:47;4.85;;;2.45;;
59702;SDS011;45570;48.782;8.332;2022-10-18T13:14:37;5.00;;;2.50;;
59702;SDS011;45570;48.782;8.332;2022-10-18T13:17:38;4.10;;;2.08;;
59702;SDS011;45570;48.782;8.332;2022-10-18T13:20:16;5.40;;;2.25;;
59702;SDS011;45570;48.782;8.332;2022-10-18T13:22:57;6.25;;;2.10;;
59702;SDS011;45570;48.782;8.332;2022-10-18T13:25:34;8.35;;;2.70;;
59702;SDS011;45570;48.782;8.332;2022-10-18T13:28:18;6.05;;;2.38;;
59702;SDS011;45570;48.782;8.332;2022-10-18T13:30:55;3.70;;;1.70;;
59702;SDS011;45570;48.782;8.332;2022-10-18T13:33:30;6.93;;;3.33;;
59702;SDS011;45570;48.782;8.332;2022-10-18T13:36:01;3.95;;;2.50;;
59702;SDS011;45570;48.782;8.332;2022-10-18T13:38:43;5.82;;;2.63;;
59702;SDS011;45570;48.782;8.332;2022-10-18T13:41:17;8.10;;;2.42;;
59702;SDS011;45570;48.782;8.332;2022-10-18T13:43:57;5.00;;;2.35;;
59702;SDS011;45570;48.782;8.332;2022-10-18T13:49:59;4.38;;;2.72;;
59702;SDS011;45570;48.782;8.332;2022-10-18T13:52:57;4.90;;;3.25;;
59702;SDS011;45570;48.782;8.332;2022-10-18T13:55:56;13.77;;;3.03;;
59702;SDS011;45570;48.782;8.332;2022-10-18T13:58:51;7.70;;;2.90;;
59702;SDS011;45570;48.782;8.332;2022-10-18T14:01:43;5.32;;;2.95;;
59702;SDS011;45570;48.782;8.332;2022-10-18T14:04:33;8.68;;;2.60;;
59702;SDS011;45570;48.782;8.332;2022-10-18T14:07:09;5.90;;;2.90;;
59702;SDS011;45570;48.782;8.332;2022-10-18T14:09:43;7.80;;;3.03;;
59702;SDS011;45570;48.782;8.332;2022-10-18T14:12:24;4.45;;;2.63;;
59702;SDS011;45570;48.782;8.332;2022-10-18T14:14:58;5.57;;;2.85;;
59702;SDS011;45570;48.782;8.332;2022-10-18T14:17:34;4.07;;;3.03;;
59702;SDS011;45570;48.782;8.332;2022-10-18T14:20:18;5.15;;;3.03;;
59702;SDS011;45570;48.782;8.332;2022-10-18T14:22:56;8.75;;;3.10;;
59702;SDS011;45570;48.782;8.332;2022-10-18T14:25:32;7.78;;;3.33;;
59702;SDS011;45570;48.782;8.332;2022-10-18T14:28:05;5.57;;;3.00;;
59702;SDS011;45570;48.782;8.332;2022-10-18T14:30:49;6.05;;;3.10;;
59702;SDS011;45570;48.782;8.332;2022-10-18T14:33:23;4.57;;;2.83;;
59702;SDS011;45570;48.782;8.332;2022-10-18T14:35:57;4.10;;;2.87;;
59702;SDS011;45570;48.782;8.332;2022-10-18T14:38:29;7.10;;;2.92;;
59702;SDS011;45570;48.782;8.332;2022-10-18T14:41:05;5.47;;;2.90;;
59702;SDS011;45570;48.782;8.332;2022-10-18T14:43:42;8.57;;;3.40;;
59702;SDS011;45570;48.782;8.332;2022-10-18T14:46:16;5.25;;;3.08;;
59702;SDS011;45570;48.782;8.332;2022-10-18T14:48:53;5.70;;;3.28;;
59702;SDS011;45570;48.782;8.332;2022-10-18T14:51:24;5.68;;;3.05;;
59702;SDS011;45570;48.782;8.332;2022-10-18T14:53:55;7.50;;;3.35;;
59702;SDS011;45570;48.782;8.332;2022-10-18T14:56:25;9.00;;;3.13;;
59702;SDS011;45570;48.782;8.332;2022-10-18T14:58:57;10.18;;;3.25;;
59702;SDS011;45570;48.782;8.332;2022-10-18T15:01:30;6.50;;;3.13;;
59702;SDS011;45570;48.782;8.332;2022-10-18T15:04:03;4.82;;;3.08;;
59702;SDS011;45570;48.782;8.332;2022-10-18T15:06:34;7.57;;;3.05;;
59702;SDS011;45570;48.782;8.332;2022-10-18T15:09:03;10.70;;;3.45;;
59702;SDS011;45570;48.782;8.332;2022-10-18T15:11:32;6.13;;;3.67;;
59702;SDS011;45570;48.782;8.332;2022-10-18T15:14:06;9.25;;;3.17;;
59702;SDS011;45570;48.782;8.332;2022-10-18T15:16:43;6.50;;;3.35;;
59702;SDS011;45570;48.782;8.332;2022-10-18T15:19:29;10.30;;;3.95;;
59702;SDS011;45570;48.782;8.332;2022-10-18T15:22:00;6.55;;;3.10;;
59702;SDS011;45570;48.782;8.332;2022-10-18T15:25:04;7.20;;;3.42;;
59702;SDS011;45570;48.782;8.332;2022-10-18T15:27:38;7.40;;;3.13;;
59702;SDS011;45570;48.782;8.332;2022-10-18T15:30:16;7.47;;;3.20;;
59702;SDS011;45570;48.782;8.332;2022-10-18T15:32:49;8.60;;;3.25;;
59702;SDS011;45570;48.782;8.332;2022-10-18T15:35:21;6.43;;;3.33;;
59702;SDS011;45570;48.782;8.332;2022-10-18T15:37:52;9.50;;;3.85;;
59702;SDS011;45570;48.782;8.332;2022-10-18T15:40:30;8.13;;;3.35;;
59702;SDS011;45570;48.782;8.332;2022-10-18T15:46:05;10.23;;;4.10;;
59702;SDS011;45570;48.782;8.332;2022-10-18T15:48:34;3.55;;;3.08;;
59702;SDS011;45570;48.782;8.332;2022-10-18T15:51:04;8.60;;;3.08;;
59702;SDS011;45570;48.782;8.332;2022-10-18T15:53:41;10.70;;;3.47;;
59702;SDS011;45570;48.782;8.332;2022-10-18T15:56:29;5.45;;;3.20;;
59702;SDS011;45570;48.782;8.332;2022-10-18T15:59:00;8.10;;;3.10;;
59702;SDS011;45570;48.782;8.332;2022-10-18T16:01:33;7.53;;;3.40;;
59702;SDS011;45570;48.782;8.332;2022-10-18T16:04:04;9.05;;;3.17;;
59702;SDS011;45570;48.782;8.332;2022-10-18T16:06:37;9.18;;;3.53;;
59702;SDS011;45570;48.782;8.332;2022-10-18T16:09:08;14.32;;;3.53;;
